Time;durP1;ratioP1;P1;durP2;ratioP2;P2;SDS_P1;SDS_P2;PMS_P1;PMS_P2;Temp;Humidity;BMP_temperature;BMP_pressure;BME280_temperature;BME280_humidity;BME280_pressure;Samples;Min_cycle;Max_cycle;Signal;HPM_P1;HPM_P2
2021/12/04 00:01:32;;;;;;;30.25;16.48;;;;;;;;;;4897080;29;20045;-78
2021/12/04 00:04:30;;;;;;;33.47;17.27;;;;;;;;;;4901202;29;20594;-79
2021/12/04 00:07:38;;;;;;;34.80;18.13;;;;;;;;;;4872966;29;20049;-80
2021/12/04 00:10:06;;;;;;;33.70;18.08;;;;;;;;;;4849271;29;20030;-79
2021/12/04 00:13:09;;;;;;;38.10;20.30;;;;;;;;;;4865728;29;20034;-80
2021/12/04 00:16:24;;;;;;;37.45;19.02;;;;;;;;;;4844268;29;20022;-80
2021/12/04 00:19:33;;;;;;;32.67;16.35;;;;;;;;;;4830688;29;20015;-79
2021/12/04 00:22:29;;;;;;;30.88;15.27;;;;;;;;;;4802960;29;20039;-79
2021/12/04 00:25:38;;;;;;;29.02;13.95;;;;;;;;;;4829242;29;20180;-80
2021/12/04 00:28:29;;;;;;;23.33;13.93;;;;;;;;;;4747412;30;20024;-79
2021/12/04 00:31:17;;;;;;;27.45;12.93;;;;;;;;;;4741041;30;20061;-78
2021/12/04 00:34:09;;;;;;;25.00;14.13;;;;;;;;;;4702123;30;20046;-79
2021/12/04 00:37:32;;;;;;;27.02;14.88;;;;;;;;;;4688729;30;20065;-79
2021/12/04 00:49:20;;;;;;;24.92;13.07;;;;;;;;;;4707978;30;20084;-79
2021/12/04 00:52:08;;;;;;;21.83;13.02;;;;;;;;;;4704908;30;20071;-79
2021/12/04 00:54:55;;;;;;;25.55;13.00;;;;;;;;;;4735380;30;20057;-79
2021/12/04 00:58:08;;;;;;;25.13;13.73;;;;;;;;;;4749047;30;20260;-79
2021/12/04 01:00:42;;;;;;;24.65;14.13;;;;;;;;;;4737151;30;20041;-80
2021/12/04 01:03:17;;;;;;;30.05;15.23;;;;;;;;;;4701633;30;20049;-79
2021/12/04 01:06:00;;;;;;;28.30;16.25;;;;;;;;;;4779124;30;20068;-78
2021/12/04 01:08:36;;;;;;;;;;;;;;;;;;4776481;29;20043;-79
2021/12/04 01:11:11;;;;;;;28.98;15.48;;;;;;;;;;4824944;29;19901;-79
2021/12/04 01:13:48;;;;;;;24.20;14.63;;;;;;;;;;4836555;29;20083;-79
2021/12/04 01:16:39;;;;;;;25.63;14.88;;;;;;;;;;4804801;29;20047;-79
2021/12/04 01:19:18;;;;;;;27.30;15.63;;;;;;;;;;4825562;29;20039;-79
2021/12/04 01:21:56;;;;;;;37.17;17.65;;;;;;;;;;4860201;29;20055;-79
2021/12/04 01:24:32;;;;;;;32.65;16.83;;;;;;;;;;4890291;29;20041;-79
2021/12/04 01:27:17;;;;;;;;;;;;;;;;;;5029638;23;20942;-80
2021/12/04 01:29:46;;;;;;;32.42;16.35;;;;;;;;;;4993263;28;19922;-79
2021/12/04 01:32:16;;;;;;;26.90;15.07;;;;;;;;;;5014948;28;20041;-79
2021/12/04 01:35:16;;;;;;;33.35;15.43;;;;;;;;;;4974485;28;20053;-79
2021/12/04 01:38:11;;;;;;;26.77;14.38;;;;;;;;;;4951157;28;20041;-80
2021/12/04 01:40:59;;;;;;;24.27;14.43;;;;;;;;;;5015543;28;20089;-79
2021/12/04 01:44:08;;;;;;;23.65;13.05;;;;;;;;;;5016560;28;20010;-79
2021/12/04 01:46:58;;;;;;;22.95;13.10;;;;;;;;;;5007533;28;20033;-79
2021/12/04 01:50:33;;;;;;;28.70;14.15;;;;;;;;;;5016574;28;20087;-79
2021/12/04 01:52:37;;;;;;;39.28;21.52;;;;;;;;;;4935632;28;20067;-81
2021/12/04 01:55:30;;;;;;;45.95;25.02;;;;;;;;;;4924338;29;20024;-83
2021/12/04 01:58:16;;;;;;;29.30;15.65;;;;;;;;;;4897917;29;20136;-79
2021/12/04 02:00:43;;;;;;;25.25;14.25;;;;;;;;;;4898458;29;20044;-79
2021/12/04 02:03:29;;;;;;;24.30;14.40;;;;;;;;;;4899739;29;20082;-79
2021/12/04 02:06:17;;;;;;;23.73;13.57;;;;;;;;;;4846023;29;20043;-83
2021/12/04 02:09:06;;;;;;;25.65;13.50;;;;;;;;;;4755058;30;20101;-82
2021/12/04 02:11:38;;;;;;;23.85;13.25;;;;;;;;;;4750956;30;20047;-80
2021/12/04 02:14:08;;;;;;;26.00;14.13;;;;;;;;;;4717104;30;20044;-85
2021/12/04 02:16:57;;;;;;;28.55;15.10;;;;;;;;;;4748065;30;20089;-80
2021/12/04 02:19:41;;;;;;;33.20;15.95;;;;;;;;;;4740504;30;20057;-80
2021/12/04 02:22:11;;;;;;;36.75;17.67;;;;;;;;;;4744004;30;20112;-79
2021/12/04 02:24:46;;;;;;;33.55;16.33;;;;;;;;;;4750862;30;20094;-80
2021/12/04 02:27:13;;;;;;;27.75;13.43;;;;;;;;;;4751355;30;20048;-83
2021/12/04 02:30:00;;;;;;;27.38;13.07;;;;;;;;;;4793236;29;20055;-80
2021/12/04 02:32:51;;;;;;;23.65;12.13;;;;;;;;;;4788488;30;20050;-80
2021/12/04 02:35:21;;;;;;;19.58;11.10;;;;;;;;;;4787999;30;20040;-80
2021/12/04 02:37:47;;;;;;;19.25;10.98;;;;;;;;;;4805040;30;20104;-83
2021/12/04 02:40:46;;;;;;;19.13;10.77;;;;;;;;;;4803918;30;20047;-81
2021/12/04 02:43:45;;;;;;;17.25;10.80;;;;;;;;;;4822421;29;20110;-80
2021/12/04 02:46:29;;;;;;;20.67;10.90;;;;;;;;;;4874705;29;20037;-80
2021/12/04 02:49:07;;;;;;;16.35;9.77;;;;;;;;;;4896064;29;20033;-81
2021/12/04 02:51:35;;;;;;;17.20;10.60;;;;;;;;;;4894272;29;20086;-81
2021/12/04 02:54:07;;;;;;;18.77;10.57;;;;;;;;;;4895766;29;20037;-87
2021/12/04 02:56:34;;;;;;;20.50;10.40;;;;;;;;;;4878160;29;20518;-79
2021/12/04 02:59:04;;;;;;;19.88;10.45;;;;;;;;;;4883840;29;20028;-81
2021/12/04 03:01:33;;;;;;;20.92;11.30;;;;;;;;;;4909943;29;20037;-82
2021/12/04 03:04:11;;;;;;;22.88;10.75;;;;;;;;;;4906866;29;20049;-80
2021/12/04 03:06:59;;;;;;;22.17;10.82;;;;;;;;;;4895199;29;20082;-80
2021/12/04 03:09:34;;;;;;;17.02;10.00;;;;;;;;;;4965324;29;20035;-82
2021/12/04 03:12:09;;;;;;;18.23;11.32;;;;;;;;;;4950277;29;20105;-82
2021/12/04 03:14:42;;;;;;;18.05;10.63;;;;;;;;;;4965144;29;20087;-79
2021/12/04 03:17:20;;;;;;;19.88;11.23;;;;;;;;;;4960642;29;20035;-80
2021/12/04 03:19:52;;;;;;;20.08;11.00;;;;;;;;;;4947553;29;20036;-81
2021/12/04 03:22:24;;;;;;;19.13;11.40;;;;;;;;;;4960653;28;20121;-81
2021/12/04 03:24:53;;;;;;;22.10;11.43;;;;;;;;;;4945704;29;20039;-84
2021/12/04 03:27:23;;;;;;;20.05;11.68;;;;;;;;;;4935087;29;20180;-90
2021/12/04 03:29:59;;;;;;;19.23;11.68;;;;;;;;;;4953288;28;20149;-82
2021/12/04 03:41:02;;;;;;;23.83;14.57;;;;;;;;;;4969818;28;20073;-81
2021/12/04 03:43:39;;;;;;;25.95;12.68;;;;;;;;;;4982872;28;20027;-84
2021/12/04 03:46:15;;;;;;;19.80;12.50;;;;;;;;;;4951051;28;20051;-88
2021/12/04 03:49:00;;;;;;;;;;;;;;;;;;;;;
2021/12/04 03:51:35;;;;;;;19.23;11.80;;;;;;;;;;4925068;29;20048;-82
2021/12/04 03:54:12;;;;;;;17.90;11.65;;;;;;;;;;4923086;29;20037;-79
2021/12/04 03:56:38;;;;;;;24.88;12.68;;;;;;;;;;4908579;29;20048;-87
2021/12/04 03:59:05;;;;;;;24.95;12.73;;;;;;;;;;4907081;29;20115;-84
2021/12/04 04:01:32;;;;;;;24.63;12.57;;;;;;;;;;4927738;29;20238;-88
2021/12/04 04:04:04;;;;;;;20.17;12.48;;;;;;;;;;4907161;29;20113;-83
2021/12/04 04:06:33;;;;;;;21.05;12.40;;;;;;;;;;4877217;29;20037;-83
2021/12/04 04:09:03;;;;;;;22.80;12.68;;;;;;;;;;4917045;29;20046;-85
2021/12/04 04:11:36;;;;;;;21.73;13.25;;;;;;;;;;4910822;29;20036;-87
2021/12/04 04:14:08;;;;;;;23.00;13.02;;;;;;;;;;4928451;29;20225;-84
2021/12/04 04:16:41;;;;;;;24.38;12.43;;;;;;;;;;4929020;29;20047;-84
2021/12/04 04:19:09;;;;;;;18.92;11.02;;;;;;;;;;4897159;29;20055;-87
2021/12/04 04:21:42;;;;;;;21.33;12.25;;;;;;;;;;4898672;29;20036;-81
2021/12/04 04:24:12;;;;;;;22.23;11.55;;;;;;;;;;4912313;29;20040;-87
2021/12/04 04:27:36;;;;;;;;;;;;;;;;;;;;;
2021/12/04 04:30:15;;;;;;;19.63;11.07;;;;;;;;;;4923454;28;20103;-90
2021/12/04 04:32:42;;;;;;;20.25;11.82;;;;;;;;;;4965057;28;20130;-89
2021/12/04 04:35:21;;;;;;;23.88;11.63;;;;;;;;;;4966038;28;20037;-91
2021/12/04 04:38:17;;;;;;;20.92;11.55;;;;;;;;;;4985199;28;20023;-89
2021/12/04 04:58:20;;;;;;;23.20;12.73;;;13.60;2201.60;;;;;;4972241;28;20393;-91
2021/12/04 05:12:23;;;;;;;26.63;14.40;;;13.70;2201.60;;;;;;4962856;28;20046;-91
2021/12/04 05:20:39;;;;;;;24.27;16.00;;;13.70;2201.60;;;;;;4936972;29;20096;-91
2021/12/04 05:23:13;;;;;;;33.67;16.45;;;13.60;2201.60;;;;;;4926750;29;20052;-87
2021/12/04 05:25:55;;;;;;;29.67;17.33;;;13.60;2201.60;;;;;;4927606;29;20059;-90
2021/12/04 05:28:24;;;;;;;31.52;17.75;;;13.60;2201.60;;;;;;4925547;29;20143;-92
2021/12/04 05:31:33;;;;;;;40.47;19.67;;;13.70;2201.60;;;;;;4923197;29;20083;-91
2021/12/04 05:34:08;;;;;;;31.52;16.63;;;13.70;2201.60;;;;;;4903428;29;20028;-87
2021/12/04 05:36:54;;;;;;;26.00;14.70;;;13.40;2201.60;;;;;;4889312;29;20044;-90
2021/12/04 05:39:51;;;;;;;;;;;;;;;;;;;;;
2021/12/04 05:42:25;;;;;;;41.03;21.38;;;13.60;2201.60;;;;;;5075170;23;20110;-88
2021/12/04 05:44:53;;;;;;;50.30;24.95;;;38.40;2201.60;;;;;;4926217;29;20044;-90
2021/12/04 05:47:24;;;;;;;47.10;25.30;;;38.50;2201.60;;;;;;4935025;29;20054;-90
2021/12/04 05:50:00;;;;;;;44.28;23.05;;;38.40;2201.60;;;;;;4923117;29;20039;-89
2021/12/04 05:55:31;;;;;;;40.33;20.60;;;38.40;2201.60;;;;;;4878160;29;20435;-92
2021/12/04 05:58:19;;;;;;;39.42;21.50;;;13.60;2201.60;;;;;;4866890;29;20041;-89
2021/12/04 06:00:45;;;;;;;35.00;20.08;;;13.70;2201.60;;;;;;4875893;29;20077;-80
2021/12/04 06:03:15;;;;;;;40.10;21.50;;;13.70;2201.60;;;;;;4871636;29;20438;-85
2021/12/04 06:05:55;;;;;;;34.00;18.27;;;13.70;2201.60;;;;;;4868171;29;20602;-81
2021/12/04 06:08:21;;;;;;;38.78;19.40;;;13.70;2201.60;;;;;;4902127;29;20100;-90
2021/12/04 06:10:49;;;;;;;38.75;22.08;;;38.40;2201.60;;;;;;4885366;29;20052;-74
2021/12/04 06:13:16;;;;;;;41.03;23.50;;;13.60;2201.60;;;;;;4885222;29;20064;-77
2021/12/04 06:15:42;;;;;;;42.88;23.20;;;13.70;2201.60;;;;;;4891654;29;20040;-87
2021/12/04 06:18:08;;;;;;;40.05;22.02;;;13.60;2201.60;;;;;;4901769;29;20052;-76
2021/12/04 06:23:27;;;;;;;48.72;26.27;;;13.50;2201.60;;;;;;4909453;29;20086;-84
2021/12/04 06:25:54;;;;;;;45.70;24.67;;;13.40;2201.60;;;;;;4917810;29;20020;-79
2021/12/04 06:28:23;;;;;;;43.78;22.80;;;13.40;2201.60;;;;;;4907676;29;20035;-80
2021/12/04 06:30:59;;;;;;;42.40;22.65;;;13.40;2201.60;;;;;;4919421;28;20057;-80
2021/12/04 06:33:49;;;;;;;55.88;24.48;;;13.40;2201.60;;;;;;4969812;28;20027;-81
2021/12/04 06:36:15;;;;;;;50.08;27.98;;;13.30;2201.60;;;;;;4964863;28;20533;-77
2021/12/04 06:38:40;;;;;;;47.17;25.70;;;13.30;2201.60;;;;;;4959468;28;20038;-75
2021/12/04 06:41:06;;;;;;;37.88;22.25;;;13.40;2201.60;;;;;;4967726;28;20058;-76
2021/12/04 06:43:34;;;;;;;34.22;19.30;;;13.40;2201.60;;;;;;4959293;28;20211;-79
2021/12/04 06:46:03;;;;;;;35.05;19.30;;;13.30;2201.60;;;;;;4957493;29;20058;-77
2021/12/04 06:51:50;;;;;;;48.03;21.50;;;13.30;2201.60;;;;;;4910274;29;20123;-78
2021/12/04 06:54:58;;;;;;;50.72;25.20;;;13.20;2201.60;;;;;;4906734;29;20509;-79
2021/12/04 06:57:25;;;;;;;46.47;25.67;;;13.00;2201.60;;;;;;4901321;29;20037;-78
2021/12/04 06:59:55;;;;;;;45.95;24.08;;;13.20;2201.60;;;;;;4882995;29;20581;-77
2021/12/04 07:02:20;;;;;;;49.10;25.83;;;0.00;2201.60;;;;;;4903720;29;20047;-77
2021/12/04 07:04:46;;;;;;;49.42;24.80;;;0.10;2201.60;;;;;;4898126;29;20041;-76
2021/12/04 07:07:16;;;;;;;51.67;25.13;;;0.30;2201.60;;;;;;4914379;28;20112;-76
2021/12/04 07:09:46;;;;;;;55.08;28.02;;;0.50;2201.60;;;;;;4911460;29;20017;-78
2021/12/04 07:12:11;;;;;;;52.38;26.13;;;0.60;2201.60;;;;;;4914503;29;20044;-77
2021/12/04 07:14:39;;;;;;;56.75;27.63;;;0.80;2201.60;;;;;;4890164;29;20053;-77
2021/12/04 07:17:07;;;;;;;39.03;20.90;;;0.90;2201.60;;;;;;4904599;29;20119;-77
2021/12/04 07:19:33;;;;;;;47.33;20.10;;;25.60;2201.60;;;;;;4911585;29;20040;-78
2021/12/04 07:22:02;;;;;;;36.60;18.85;;;25.60;2201.60;;;;;;4921338;29;20091;-75
2021/12/04 07:24:32;;;;;;;38.20;17.77;;;25.80;2201.60;;;;;;4920637;29;20067;-75
2021/12/04 07:27:00;;;;;;;43.00;22.90;;;26.30;2201.60;;;;;;4940058;28;20038;-74
2021/12/04 07:29:26;;;;;;;38.92;21.45;;;26.20;2201.60;;;;;;4967601;28;20038;-75
2021/12/04 07:31:52;;;;;;;47.55;21.50;;;77.30;2227.20;;;;;;4977938;28;20886;-76
2021/12/04 07:34:17;;;;;;;75.90;43.17;;;26.30;2201.60;;;;;;4986275;28;20018;-76
2021/12/04 07:36:44;;;;;;;93.07;49.40;;;26.50;2201.60;;;;;;4986267;28;20030;-75
2021/12/04 07:39:13;;;;;;;52.63;28.83;;;;;;;;;;4967348;28;20106;-78
2021/12/04 07:41:42;;;;;;;53.00;26.52;;;;;;;;;;4992136;28;20109;-79
2021/12/04 07:47:27;;;;;;;43.70;21.00;;;;;;;;;;4976552;28;20189;-76
2021/12/04 07:50:19;;;;;;;46.17;25.25;;;;;;;;;;4978426;28;20051;-78
2021/12/04 07:52:45;;;;;;;38.40;22.63;;;;;;;;;;4958419;29;20078;-77
2021/12/04 07:55:23;;;;;;;38.53;20.30;;;;;;;;;;4962403;28;20052;-77
2021/12/04 07:58:28;;;;;;;41.92;22.02;;;;;;;;;;4978827;28;20022;-79
2021/12/04 08:01:17;;;;;;;43.60;22.52;;;;;;;;;;4891614;29;20042;-79
2021/12/04 08:03:45;;;;;;;40.30;20.35;;;;;;;;;;4862937;29;20044;-75
2021/12/04 08:06:14;;;;;;;42.88;22.98;;;;;;;;;;4874706;29;20041;-76
2021/12/04 08:08:40;;;;;;;40.03;23.13;;;;;;;;;;4876484;29;20041;-77
2021/12/04 08:13:43;;;;;;;34.65;20.73;;;;;;;;;;5335127;23;20043;-76
2021/12/04 08:16:09;;;;;;;36.92;19.58;;;;;;;;;;4962607;28;20080;-76
2021/12/04 08:18:37;;;;;;;65.68;27.77;;;;;;;;;;4975338;28;20034;-74
2021/12/04 08:21:03;;;;;;;50.85;25.80;;;;;;;;;;4974536;28;20027;-77
2021/12/04 08:23:30;;;;;;;42.95;25.00;;;;;;;;;;4977196;28;20035;-75
2021/12/04 08:25:57;;;;;;;42.05;25.83;;;;;;;;;;4970495;28;20054;-76
2021/12/04 08:28:23;;;;;;;44.20;24.23;;;;;;;;;;4965919;28;20020;-76
2021/12/04 08:30:50;;;;;;;42.65;26.13;;;;;;;;;;4961484;28;20429;-76
2021/12/04 08:33:16;;;;;;;50.75;25.25;;;;;;;;;;4974157;28;20114;-76
2021/12/04 08:35:47;;;;;;;42.83;22.48;;;;;;;;;;4945891;28;21370;-78
2021/12/04 08:46:14;;;;;;;39.92;23.95;;;;;;;;;;5024103;23;20159;-74
2021/12/04 08:48:40;;;;;;;42.15;24.08;;;;;;;;;;4983286;28;20400;-76
2021/12/04 08:51:06;;;;;;;40.90;25.80;;;;;;;;;;4993874;28;20042;-73
2021/12/04 08:53:32;;;;;;;35.03;22.10;;;;;;;;;;4968415;28;20038;-73
2021/12/04 08:55:59;;;;;;;38.33;20.27;;;;;;;;;;4975872;28;20027;-76
2021/12/04 08:58:25;;;;;;;41.85;22.65;;;;;;;;;;4997703;28;20030;-75
2021/12/04 09:00:59;;;;;;;38.55;23.45;;;;;;;;;;4995521;28;20049;-76
2021/12/04 09:03:28;;;;;;;40.85;22.80;;;;;;;;;;4997399;28;20089;-73
2021/12/04 09:05:59;;;;;;;42.97;24.30;;;;;;;;;;4981581;28;20034;-79
2021/12/04 09:08:27;;;;;;;39.95;24.27;;;;;;;;;;4977213;28;20084;-76
2021/12/04 09:10:54;;;;;;;48.55;27.92;;;;;;;;;;5008119;28;20061;-74
2021/12/04 09:13:20;;;;;;;45.42;26.55;;;;;;;;;;4997597;28;20373;-74
2021/12/04 09:15:47;;;;;;;49.58;28.48;;;;;;;;;;4995674;28;20608;-73
2021/12/04 09:18:13;;;;;;;47.80;27.52;;;;;;;;;;4990810;28;20062;-74
2021/12/04 09:20:39;;;;;;;40.05;25.52;;;;;;;;;;4992483;28;20117;-73
2021/12/04 09:23:11;;;;;;;39.35;23.23;;;;;;;;;;5002224;28;20022;-74
2021/12/04 09:25:39;;;;;;;33.85;19.60;;;;;;;;;;4971287;28;20056;-74
2021/12/04 10:14:22;;;;;;;25.73;15.85;;;;;;;;;;4862589;29;20068;-76
2021/12/04 10:34:01;;;;;;;20.77;11.52;;;;;;;;;;4861369;29;20040;-78
2021/12/04 10:36:51;;;;;;;22.17;11.70;;;;;;;;;;4864272;29;20022;-77
2021/12/04 10:39:49;;;;;;;19.85;11.82;;;;;;;;;;4849591;29;20474;-78
2021/12/04 10:42:21;;;;;;;20.67;12.52;;;;;;;;;;4835884;29;20070;-78
2021/12/04 10:44:52;;;;;;;20.65;10.88;;;;;;;;;;4837352;29;20053;-79
2021/12/04 10:47:37;;;;;;;20.65;11.73;;;;;;;;;;4837062;29;20053;-77
2021/12/04 10:53:10;;;;;;;20.55;11.18;;;;;;;;;;4838251;29;20065;-78
2021/12/04 11:41:22;;;;;;;21.92;14.30;;;;;;;;;;4925380;29;20115;-78
2021/12/04 11:44:22;;;;;;;21.90;13.20;;;;;;;;;;4927947;29;20013;-77
2021/12/04 11:46:56;;;;;;;22.33;13.52;;;;;;;;;;4900967;29;20478;-76
2021/12/04 11:49:25;;;;;;;21.90;13.65;;;;;;;;;;4936869;29;20016;-76
2021/12/04 11:52:07;;;;;;;24.27;14.35;;;;;;;;;;4930884;29;20039;-78
2021/12/04 11:54:44;;;;;;;25.25;15.48;;;;;;;;;;4928582;29;20150;-79
2021/12/04 11:57:12;;;;;;;25.13;15.75;;;;;;;;;;4919645;29;20090;-78
2021/12/04 11:59:42;;;;;;;25.25;15.43;;;;;;;;;;4927911;29;20063;-77
2021/12/04 12:02:10;;;;;;;25.95;16.30;;;;;;;;;;4916060;29;20390;-76
2021/12/04 12:04:45;;;;;;;24.42;15.93;;;;;;;;;;4943742;28;20051;-75
2021/12/04 12:07:21;;;;;;;24.70;15.63;;;;;;;;;;4962132;28;20042;-73
2021/12/04 12:09:49;;;;;;;25.23;16.20;;;;;;;;;;4964058;28;20507;-76
2021/12/04 12:12:17;;;;;;;28.35;16.75;;;;;;;;;;4965092;28;20054;-72
2021/12/04 12:14:56;;;;;;;27.52;16.90;;;;;;;;;;4960432;28;20019;-78
2021/12/04 12:17:33;;;;;;;29.10;17.38;;;;;;;;;;4963932;28;20043;-75
2021/12/04 12:19:59;;;;;;;30.13;18.13;;;;;;;;;;4981524;28;20035;-75
2021/12/04 12:25:33;;;;;;;32.08;19.45;;;;;;;;;;4902517;29;20056;-77
2021/12/04 12:36:32;;;;;;;28.80;20.38;;;;;;;;;;4905630;29;20104;-76
2021/12/04 12:39:01;;;;;;;30.55;19.45;;;;;;;;;;4916939;29;20088;-77
2021/12/04 12:41:35;;;;;;;35.88;24.05;;;;;;;;;;4908671;29;20444;-74
2021/12/04 12:44:07;;;;;;;43.28;27.83;;;;;;;;;;4907600;29;20044;-76
2021/12/04 12:46:46;;;;;;;36.85;26.13;;;;;;;;;;4919148;29;20056;-77
2021/12/04 12:49:26;;;;;;;34.90;22.65;;;;;;;;;;4914084;29;20048;-77
2021/12/04 12:52:01;;;;;;;34.58;20.98;;;;;;;;;;4916213;29;20058;-77
2021/12/04 12:54:41;;;;;;;35.55;22.80;;;;;;;;;;4908254;29;20107;-76
2021/12/04 12:57:10;;;;;;;37.22;23.45;;;;;;;;;;4909545;29;20107;-76
2021/12/04 13:13:53;;;;;;;35.13;23.67;;;;;;;;;;4971361;28;20037;-76
2021/12/04 13:16:22;;;;;;;36.20;23.45;;;;;;;;;;4959667;28;20128;-78
2021/12/04 13:18:53;;;;;;;35.00;23.83;;;;;;;;;;4959299;28;20039;-78
2021/12/04 13:21:19;;;;;;;34.35;23.02;;;;;;;;;;4959087;28;20031;-76
2021/12/04 13:23:52;;;;;;;35.63;23.42;;;;;;;;;;4951543;28;20155;-75
2021/12/04 13:26:18;;;;;;;33.70;22.05;;;;;;;;;;4953157;28;20036;-76
2021/12/04 13:28:46;;;;;;;34.60;21.70;;;;;;;;;;4953309;28;20089;-76
2021/12/04 13:31:12;;;;;;;36.30;23.50;;;;;;;;;;4947816;29;20126;-76
2021/12/04 13:33:39;;;;;;;34.65;22.88;;;;;;;;;;4961008;28;20066;-76
2021/12/04 13:36:12;;;;;;;35.97;22.70;;;;;;;;;;4961958;28;20123;-78
2021/12/04 13:38:41;;;;;;;33.83;22.58;;;;;;;;;;4956798;28;20043;-77
2021/12/04 13:41:09;;;;;;;35.67;22.30;;;;;;;;;;4963639;28;20037;-78
2021/12/04 13:43:35;;;;;;;31.27;21.27;;;;;;;;;;4958635;28;20051;-77
2021/12/04 13:46:06;;;;;;;31.98;20.95;;;;;;;;;;4964839;28;20122;-79
2021/12/04 13:48:33;;;;;;;32.40;21.70;;;;;;;;;;4994593;28;20041;-79
2021/12/04 13:51:04;;;;;;;32.78;21.30;;;;;;;;;;5007920;28;20025;-78
2021/12/04 13:53:48;;;;;;;31.75;20.25;;;;;;;;;;4996410;28;20023;-79
2021/12/04 13:56:18;;;;;;;32.13;20.77;;;;;;;;;;4985733;28;20026;-78
2021/12/04 13:58:46;;;;;;;33.22;20.92;;;;;;;;;;4997363;28;20059;-79
2021/12/04 14:01:49;;;;;;;31.75;21.33;;;;;;;;;;4995433;28;20043;-81
2021/12/04 14:04:36;;;;;;;30.25;20.67;;;;;;;;;;4870590;29;20182;-78
2021/12/04 14:07:03;;;;;;;28.48;20.65;;;;;;;;;;4863429;29;20037;-74
2021/12/04 14:09:34;;;;;;;31.30;21.02;;;;;;;;;;4864938;29;20049;-78
2021/12/04 14:12:00;;;;;;;32.03;21.20;;;;;;;;;;4832529;29;20058;-77
2021/12/04 14:14:28;;;;;;;29.40;20.30;;;;;;;;;;4826414;29;20041;-77
2021/12/04 14:16:57;;;;;;;31.50;21.50;;;;;;;;;;4851587;29;20076;-78
2021/12/04 14:19:27;;;;;;;28.23;20.92;;;;;;;;;;4843227;29;20049;-77
2021/12/04 14:25:03;;;;;;;30.40;21.13;;;;;;;;;;4858003;29;20082;-80
2021/12/04 14:28:33;;;;;;;32.85;21.95;;;;;;;;;;5068531;23;20059;-78
2021/12/04 14:31:15;;;;;;;31.85;20.48;;;;;;;;;;4973737;28;20054;-80
2021/12/04 14:34:04;;;;;;;33.63;21.40;;;;;;;;;;4989961;28;20026;-80
2021/12/04 14:37:12;;;;;;;35.53;19.65;;;;;;;;;;5000968;28;20035;-80
2021/12/04 14:40:17;;;;;;;30.38;19.67;;;;;;;;;;4956397;29;20028;-80
2021/12/04 14:49:46;;;;;;;30.60;20.20;;;;;;;;;;4826693;29;20034;-80
2021/12/04 14:53:26;;;;;;;33.65;22.45;;;;;;;;;;4790408;29;20056;-80
2021/12/04 14:56:10;;;;;;;34.67;22.13;;;;;;;;;;4713870;30;20038;-79
2021/12/04 14:58:41;;;;;;;35.00;22.08;;;;;;;;;;4718396;30;20041;-78
2021/12/04 15:01:12;;;;;;;33.17;20.92;;;;;;;;;;4708558;30;20052;-78
2021/12/04 15:03:41;;;;;;;90.22;49.03;;;;;;;;;;4706446;30;20046;-78
2021/12/04 15:06:12;;;;;;;32.72;20.98;;;;;;;;;;4717626;30;20052;-79
2021/12/04 15:08:42;;;;;;;35.85;23.58;;;;;;;;;;4710640;30;20113;-79
2021/12/04 15:11:09;;;;;;;33.58;21.30;;;;;;;;;;4711872;30;20043;-79
2021/12/04 15:13:41;;;;;;;40.47;23.00;;;;;;;;;;4717719;30;20053;-78
2021/12/04 15:16:08;;;;;;;36.80;23.52;;;;;;;;;;4709793;30;20064;-79
2021/12/04 15:18:36;;;;;;;40.67;26.05;;;;;;;;;;4707033;30;20114;-77
2021/12/04 15:21:04;;;;;;;39.63;26.42;;;;;;;;;;4721593;30;20048;-78
2021/12/04 15:23:31;;;;;;;46.97;28.88;;;;;;;;;;4738604;30;20044;-78
2021/12/04 15:26:01;;;;;;;53.85;30.27;;;;;;;;;;4769070;29;20043;-78
2021/12/04 15:28:29;;;;;;;47.95;28.73;;;;;;;;;;4847248;29;20038;-77
2021/12/04 15:30:58;;;;;;;43.50;28.00;;;;;;;;;;4936536;29;20047;-78
2021/12/04 15:33:54;;;;;;;45.75;28.35;;;;;;;;;;4931456;29;20059;-76
2021/12/04 15:36:22;;;;;;;41.03;26.58;;;;;;;;;;4928212;29;20124;-77
2021/12/04 15:38:52;;;;;;;40.67;25.38;;;;;;;;;;4928026;29;20091;-76
2021/12/04 15:46:33;;;;;;;58.05;35.92;;;;;;;;;;4980026;28;20507;-76
2021/12/04 15:54:38;;;;;;;49.72;29.35;;;;;;;;;;4995218;28;20376;-78
2021/12/04 15:57:05;;;;;;;;;;;;;;;;;;4990878;28;20034;-77
2021/12/04 15:59:31;;;;;;;45.25;26.60;;;;;;;;;;4987308;28;19906;-76
2021/12/04 16:01:58;;;;;;;47.25;27.52;;;;;;;;;;5008406;28;20033;-78
2021/12/04 16:04:26;;;;;;;52.95;28.90;;;;;;;;;;5012758;28;20034;-77
2021/12/04 16:07:04;;;;;;;49.45;28.05;;;;;;;;;;4990637;28;20022;-77
2021/12/04 16:09:41;;;;;;;47.47;27.55;;;;;;;;;;4999463;28;20031;-77
2021/12/04 16:12:33;;;;;;;47.17;28.85;;;;;;;;;;4995482;28;20041;-77
2021/12/04 16:15:04;;;;;;;45.15;28.65;;;;;;;;;;4997892;28;20061;-77
2021/12/04 16:17:36;;;;;;;54.45;32.05;;;;;;;;;;4989725;28;20035;-77
2021/12/04 16:20:12;;;;;;;50.65;28.17;;;;;;;;;;4988296;28;20031;-77
2021/12/04 16:22:40;;;;;;;47.10;28.58;;;;;;;;;;4988825;28;20154;-78
2021/12/04 16:25:12;;;;;;;45.33;27.50;;;;;;;;;;5003488;28;20023;-76
2021/12/04 16:30:35;;;;;;;55.47;31.42;;;;;;;;;;4987318;28;20135;-77
2021/12/04 16:33:32;;;;;;;52.67;32.97;;;;;;;;;;4978896;28;20058;-73
2021/12/04 16:39:39;;;;;;;62.17;34.85;;;;;;;;;;4949068;28;20035;-79
2021/12/04 19:06:03;;;;;;;40.75;25.30;;;;;;;;;;5816199;23;19930;-75
2021/12/04 19:08:32;;;;;;;37.80;25.02;;;;;;;;;;4975295;29;20038;-78
2021/12/04 19:11:22;;;;;;;39.05;24.40;;;;;;;;;;4920855;29;20044;-75
2021/12/04 19:29:23;;;;;;;43.17;27.83;;;;;;;;;;5932121;23;20023;-75
2021/12/04 19:31:58;;;;;;;49.53;28.10;;;;;;;;;;5105198;23;20110;-78
2021/12/04 19:52:00;;;;;;;41.85;26.85;;;;;;;;;;5795451;23;20033;-78
2021/12/04 19:58:01;;;;;;;40.05;24.27;;;;;;;;;;4995346;28;20114;-79
2021/12/04 22:59:04;;;;;;;22.30;15.93;;;;;;;;;;4986952;28;20030;-80
2021/12/04 23:01:59;;;;;;;21.80;15.15;;;;;;;;;;4922806;29;20038;-81
2021/12/04 23:11:21;;;;;;;21.38;14.52;;;;;;;;;;4897598;29;20070;-80
2021/12/04 23:14:24;;;;;;;21.00;14.55;;;;;;;;;;4902731;29;20029;-80
2021/12/04 23:17:02;;;;;;;22.38;14.95;;;;;;;;;;4901587;29;20641;-80
2021/12/04 23:36:32;;;;;;;25.77;17.08;;;;;;;;;;4983098;23;20067;-81
2021/12/04 23:42:35;;;;;;;23.80;15.75;;;;;;;;;;4961193;28;20017;-79
